createdAt,value
2023-01-08T00:04:19.925Z,4.89
2023-01-08T00:09:22.893Z,4.88
2023-01-08T00:14:25.706Z,4.89
2023-01-08T00:19:28.833Z,4.91
2023-01-08T00:24:31.935Z,4.96
2023-01-08T00:29:35.160Z,4.96
2023-01-08T00:34:38.183Z,4.92
2023-01-08T00:39:41.115Z,4.92
2023-01-08T00:44:44.061Z,4.95
2023-01-08T00:49:47.465Z,4.97
2023-01-08T00:54:50.676Z,4.98
2023-01-08T00:59:53.381Z,4.99
2023-01-08T01:04:56.376Z,4.99
2023-01-08T01:09:59.220Z,4.98
2023-01-08T01:15:02.191Z,4.98
2023-01-08T01:20:08.030Z,4.98
2023-01-08T01:25:11.495Z,4.98
2023-01-08T01:30:14.401Z,4.98
2023-01-08T01:35:17.245Z,4.95
2023-01-08T01:40:20.275Z,4.95
2023-01-08T01:45:27.947Z,4.98
2023-01-08T01:50:44.571Z,4.97
2023-01-08T01:55:48.678Z,4.99
2023-01-08T02:00:54.597Z,4.99
2023-01-08T02:06:06.620Z,4.97
2023-01-08T02:12:19.205Z,4.96
2023-01-08T02:17:32.140Z,4.98
2023-01-08T02:23:11.381Z,4.95
2023-01-08T02:28:15.615Z,4.95
2023-01-08T02:33:18.416Z,4.96
2023-01-08T02:38:23.708Z,4.94
2023-01-08T02:43:47.113Z,4.99
2023-01-08T02:49:01.676Z,5.00
2023-01-08T02:54:13.212Z,5.04
2023-01-08T02:59:18.838Z,5.05
2023-01-08T03:04:24.717Z,5.05
2023-01-08T03:09:27.807Z,5.08
2023-01-08T03:15:04.207Z,5.08
2023-01-08T03:20:14.120Z,5.08
2023-01-08T03:25:20.383Z,5.09
2023-01-08T03:30:25.055Z,5.08
2023-01-08T03:35:30.124Z,5.09
2023-01-08T03:40:45.171Z,5.12
2023-01-08T03:45:59.276Z,5.13
2023-01-08T03:51:02.749Z,5.12
2023-01-08T03:56:06.108Z,5.15
2023-01-08T04:01:09.142Z,5.15
2023-01-08T04:06:12.278Z,5.13
2023-01-08T04:11:15.241Z,5.13
2023-01-08T04:16:18.265Z,5.15
2023-01-08T04:21:21.260Z,5.16
2023-01-08T04:26:24.187Z,5.14
2023-01-08T04:31:27.085Z,5.17
2023-01-08T04:36:30.752Z,5.17
2023-01-08T04:41:33.671Z,5.15
2023-01-08T04:46:36.769Z,5.10
2023-01-08T04:51:40.085Z,5.13
2023-01-08T04:56:43.569Z,5.10
2023-01-08T05:01:46.779Z,5.12
2023-01-08T05:06:49.926Z,5.13
2023-01-08T05:11:53.019Z,5.12
2023-01-08T05:16:55.957Z,5.14
2023-01-08T05:21:58.986Z,5.15
2023-01-08T05:27:02.309Z,5.13
2023-01-08T05:32:13.996Z,5.14
2023-01-08T05:37:16.926Z,5.12
2023-01-08T05:42:19.832Z,5.11
2023-01-08T05:47:23.132Z,5.12
2023-01-08T05:52:27.227Z,5.11
2023-01-08T05:57:30.250Z,5.09
2023-01-08T06:02:33.292Z,5.12
2023-01-08T06:07:36.216Z,5.10
2023-01-08T06:12:39.172Z,5.09
2023-01-08T06:17:42.376Z,5.07
2023-01-08T06:22:45.392Z,5.08
2023-01-08T06:27:52.709Z,5.08
2023-01-08T06:33:00.252Z,5.07
2023-01-08T06:38:03.430Z,5.08
2023-01-08T06:43:06.908Z,5.06
2023-01-08T06:48:09.909Z,5.03
2023-01-08T06:53:13.204Z,5.05
2023-01-08T06:58:16.722Z,5.04
2023-01-08T07:03:20.819Z,5.01
2023-01-08T07:08:24.164Z,5.03
2023-01-08T07:13:27.188Z,5.05
2023-01-08T07:18:29.843Z,5.04
2023-01-08T07:23:34.800Z,5.03
2023-01-08T07:28:37.788Z,5.05
2023-01-08T07:33:40.633Z,5.07
2023-01-08T07:38:43.519Z,5.10
2023-01-08T07:43:48.774Z,5.12
2023-01-08T07:48:51.901Z,5.15
2023-01-08T07:53:56.449Z,5.14
2023-01-08T07:58:59.410Z,5.16
2023-01-08T08:04:02.515Z,5.14
2023-01-08T08:09:05.283Z,5.15
2023-01-08T08:14:08.553Z,5.13
2023-01-08T08:19:12.843Z,5.16
2023-01-08T08:24:16.176Z,5.18
2023-01-08T08:29:19.153Z,5.20
2023-01-08T08:34:22.694Z,5.22
2023-01-08T08:39:25.605Z,5.23
2023-01-08T08:44:28.449Z,5.27
2023-01-08T08:49:31.407Z,5.22
2023-01-08T08:54:34.369Z,5.27
2023-01-08T08:59:37.973Z,5.29
2023-01-08T09:04:40.862Z,5.33
2023-01-08T09:09:43.799Z,5.35
2023-01-08T09:14:46.791Z,5.37
2023-01-08T09:19:49.738Z,5.43
2023-01-08T09:24:52.768Z,5.44
2023-01-08T09:29:55.525Z,5.49
2023-01-08T09:34:58.495Z,5.53
2023-01-08T09:40:03.143Z,5.59
2023-01-08T09:45:13.125Z,5.63
2023-01-08T09:50:16.067Z,5.71
2023-01-08T09:55:20.352Z,5.76
2023-01-08T10:00:30.007Z,5.88
2023-01-08T10:05:33.209Z,5.99
2023-01-08T10:10:37.171Z,6.07
2023-01-08T10:15:41.341Z,6.16
2023-01-08T10:20:44.346Z,6.18
2023-01-08T10:25:52.332Z,6.19
2023-01-08T10:31:15.039Z,6.17
2023-01-08T10:36:24.297Z,6.19
2023-01-08T10:41:28.159Z,6.12
2023-01-08T10:46:50.695Z,6.12
2023-01-08T10:51:55.265Z,6.20
2023-01-08T10:56:59.072Z,6.28
2023-01-08T11:02:05.216Z,6.40
2023-01-08T11:07:16.552Z,6.58
2023-01-08T11:12:35.777Z,6.84
2023-01-08T11:17:38.802Z,7.10
2023-01-08T11:22:41.629Z,7.24
2023-01-08T11:27:46.911Z,7.41
2023-01-08T11:33:02.260Z,7.51
2023-01-08T11:38:08.465Z,7.46
2023-01-08T11:43:31.907Z,7.48
2023-01-08T11:49:13.934Z,7.53
2023-01-08T11:54:31.928Z,7.57
2023-01-08T11:59:58.213Z,7.57
2023-01-08T12:05:41.402Z,7.52
2023-01-08T12:11:45.966Z,7.51
2023-01-08T12:17:38.253Z,7.56
2023-01-08T12:23:19.349Z,7.58
2023-01-08T12:28:44.029Z,7.62
2023-01-08T12:34:11.231Z,7.65
2023-01-08T12:39:26.043Z,7.66
2023-01-08T12:44:30.886Z,7.63
2023-01-08T12:49:43.130Z,7.46
2023-01-08T12:54:50.794Z,7.24
2023-01-08T13:00:08.686Z,7.06
2023-01-08T13:05:19.316Z,6.92
2023-01-08T13:10:40.624Z,6.80
2023-01-08T13:15:43.919Z,6.67
2023-01-08T13:20:58.378Z,6.57
2023-01-08T13:26:05.180Z,6.43
2023-01-08T13:31:20.061Z,6.33
2023-01-08T13:36:28.072Z,6.23
2023-01-08T13:41:44.607Z,6.14
2023-01-08T13:47:15.658Z,6.08
2023-01-08T13:52:47.927Z,6.00
2023-01-08T13:58:07.950Z,5.94
2023-01-08T14:03:35.774Z,5.90
2023-01-08T14:08:55.640Z,5.92
2023-01-08T14:14:28.451Z,5.91
2023-01-08T14:19:31.955Z,5.90
2023-01-08T14:24:35.610Z,5.90
2023-01-08T14:29:45.655Z,5.89
2023-01-08T14:34:51.525Z,5.92
2023-01-08T14:39:55.289Z,5.90
2023-01-08T14:45:14.603Z,5.91
2023-01-08T14:50:37.451Z,5.89
2023-01-08T14:55:46.468Z,5.87
2023-01-08T15:01:02.251Z,5.89
2023-01-08T15:06:07.574Z,5.90
2023-01-08T15:11:24.932Z,5.92
2023-01-08T15:16:29.653Z,5.95
2023-01-08T15:21:34.449Z,5.96
2023-01-08T15:26:42.742Z,5.99
2023-01-08T15:31:50.073Z,5.96
2023-01-08T15:36:53.185Z,6.00
2023-01-08T15:42:14.862Z,6.00
2023-01-08T15:47:17.873Z,6.01
2023-01-08T15:52:29.984Z,5.98
2023-01-08T15:57:32.956Z,6.00
2023-01-08T16:02:47.515Z,6.02
2023-01-08T16:07:50.702Z,6.01
2023-01-08T16:12:54.733Z,6.01
2023-01-08T16:17:59.454Z,6.01
2023-01-08T16:23:03.216Z,5.99
2023-01-08T16:28:06.227Z,5.97
2023-01-08T16:33:09.199Z,6.00
2023-01-08T16:38:14.156Z,5.99
2023-01-08T16:43:17.076Z,5.99
2023-01-08T16:48:22.125Z,5.99
2023-01-08T16:53:25.304Z,5.97
2023-01-08T16:58:29.575Z,6.00
2023-01-08T17:03:32.832Z,6.00
2023-01-08T17:08:40.264Z,6.02
2023-01-08T17:13:43.881Z,5.99
2023-01-08T17:18:47.165Z,6.01
2023-01-08T17:23:50.375Z,6.02
2023-01-08T17:28:55.168Z,6.03
2023-01-08T17:33:58.270Z,6.01
2023-01-08T17:39:01.522Z,6.05
2023-01-08T17:44:07.116Z,6.06
2023-01-08T17:49:13.094Z,6.08
2023-01-08T17:54:17.394Z,6.07
2023-01-08T17:59:21.674Z,6.11
2023-01-08T18:04:25.043Z,6.10
2023-01-08T18:09:27.954Z,6.08
2023-01-08T18:14:30.993Z,6.07
2023-01-08T18:19:34.024Z,6.11
2023-01-08T18:24:37.625Z,6.07
2023-01-08T18:29:40.443Z,6.10
2023-01-08T18:34:45.358Z,6.13
2023-01-08T18:39:48.353Z,6.17
2023-01-08T18:44:54.769Z,6.19
2023-01-08T18:50:03.299Z,6.17
2023-01-08T18:55:06.744Z,6.19
2023-01-08T19:00:12.384Z,6.14
2023-01-08T19:05:15.625Z,6.14
2023-01-08T19:10:18.645Z,6.12
2023-01-08T19:15:21.603Z,6.11
2023-01-08T19:20:24.522Z,6.10
2023-01-08T19:25:29.288Z,6.11
2023-01-08T19:30:32.273Z,6.11
2023-01-08T19:35:41.748Z,6.08
2023-01-08T19:40:44.999Z,6.11
2023-01-08T19:45:47.953Z,6.10
2023-01-08T19:50:50.801Z,6.09
2023-01-08T19:55:53.885Z,6.09
2023-01-08T20:00:56.852Z,6.06
2023-01-08T20:05:59.917Z,6.04
2023-01-08T20:11:11.872Z,6.02
2023-01-08T20:16:18.998Z,6.01
2023-01-08T20:21:23.251Z,5.99
2023-01-08T20:26:29.866Z,6.02
2023-01-08T20:31:34.598Z,5.97
2023-01-08T20:36:38.123Z,5.98
2023-01-08T20:41:46.630Z,5.97
2023-01-08T20:46:59.066Z,5.95
2023-01-08T20:52:02.452Z,5.89
2023-01-08T20:57:05.494Z,5.88
2023-01-08T21:02:10.864Z,5.86
2023-01-08T21:07:13.848Z,5.78
2023-01-08T21:12:17.517Z,5.73
2023-01-08T21:17:20.582Z,5.60
2023-01-08T21:22:23.341Z,5.44
2023-01-08T21:27:27.921Z,5.27
2023-01-08T21:32:31.427Z,5.03
2023-01-08T21:37:34.586Z,4.90
2023-01-08T21:42:59.766Z,4.77
2023-01-08T21:48:03.264Z,4.65
2023-01-08T21:53:24.803Z,4.56
2023-01-08T21:58:30.997Z,4.44
2023-01-08T22:03:34.040Z,4.36
2023-01-08T22:08:37.186Z,4.30
2023-01-08T22:13:40.442Z,4.29
2023-01-08T22:18:44.020Z,4.22
2023-01-08T22:23:46.970Z,4.15
2023-01-08T22:28:50.291Z,4.08
2023-01-08T22:33:58.283Z,3.97
2023-01-08T22:39:01.035Z,3.84
2023-01-08T22:44:04.501Z,3.75
2023-01-08T22:49:07.804Z,3.70
2023-01-08T22:54:13.544Z,3.68
2023-01-08T22:59:16.489Z,3.67
2023-01-08T23:04:19.377Z,3.68
2023-01-08T23:09:22.345Z,3.66
2023-01-08T23:14:25.154Z,3.71
2023-01-08T23:19:28.410Z,3.65
2023-01-08T23:24:31.919Z,3.63
2023-01-08T23:29:34.943Z,3.60
2023-01-08T23:34:37.916Z,3.56
2023-01-08T23:39:41.004Z,3.46
2023-01-08T23:44:43.733Z,3.42
2023-01-08T23:49:46.653Z,3.39
2023-01-08T23:54:49.702Z,3.39
2023-01-08T23:59:56.091Z,3.36
